Time;durP1;ratioP1;P1;durP2;ratioP2;P2;SDS_P1;SDS_P2;PMS_P1;PMS_P2;Temp;Humidity;BMP_temperature;BMP_pressure;BME280_temperature;BME280_humidity;BME280_pressure;Samples;Min_cycle;Max_cycle;Signal;HPM_P1;HPM_P2
2023/04/11 00:02:12;;;;;;;15.60;2.00;;;8.00;99.90;;;;;;5071292;28;20062;-72
2023/04/11 00:04:37;;;;;;;9.37;1.83;;;7.90;99.90;;;;;;5087319;28;20527;-72
2023/04/11 00:07:04;;;;;;;14.73;2.60;;;7.80;99.90;;;;;;5090998;28;20043;-72
2023/04/11 00:09:30;;;;;;;10.85;1.95;;;7.60;99.90;;;;;;5089424;28;20055;-72
2023/04/11 00:11:56;;;;;;;13.60;2.67;;;7.50;99.90;;;;;;5071122;28;20658;-72
2023/04/11 00:14:22;;;;;;;15.38;2.42;;;7.40;99.90;;;;;;5070225;28;20052;-72
2023/04/11 00:16:52;;;;;;;13.18;1.50;;;7.20;99.90;;;;;;5087407;28;20045;-69
2023/04/11 00:19:22;;;;;;;10.45;1.60;;;7.10;99.90;;;;;;5086335;28;20036;-69
2023/04/11 00:21:49;;;;;;;14.23;1.83;;;7.00;99.90;;;;;;5086306;28;20043;-69
2023/04/11 00:24:15;;;;;;;11.45;1.70;;;6.90;99.90;;;;;;5067924;28;20032;-69
2023/04/11 00:26:41;;;;;;;12.00;1.80;;;6.90;99.90;;;;;;5086736;28;20036;-69
2023/04/11 00:29:07;;;;;;;12.67;2.17;;;6.80;99.90;;;;;;5068855;28;20117;-69
2023/04/11 00:31:34;;;;;;;10.20;1.50;;;6.80;99.90;;;;;;5069481;28;20040;-69
2023/04/11 00:34:00;;;;;;;14.30;2.03;;;6.70;99.90;;;;;;5065860;28;20133;-69
2023/04/11 00:36:25;;;;;;;10.80;1.40;;;6.70;99.90;;;;;;5085921;28;20067;-69
2023/04/11 00:38:53;;;;;;;14.40;1.80;;;6.70;99.90;;;;;;5087457;28;20036;-69
2023/04/11 00:41:19;;;;;;;7.35;1.00;;;6.70;99.90;;;;;;5084621;28;20032;-70
2023/04/11 00:43:46;;;;;;;11.37;1.23;;;6.70;99.90;;;;;;5068359;28;20050;-70
2023/04/11 00:46:12;;;;;;;10.60;1.23;;;6.80;99.90;;;;;;5085862;28;20046;-71
2023/04/11 00:48:38;;;;;;;9.85;1.15;;;6.90;99.90;;;;;;5070569;28;20062;-70
2023/04/11 00:51:04;;;;;;;11.17;1.67;;;6.90;99.90;;;;;;5066348;28;20032;-70
2023/04/11 00:53:31;;;;;;;6.17;0.90;;;7.00;99.90;;;;;;5085926;28;20036;-70
2023/04/11 00:55:58;;;;;;;10.45;1.17;;;7.10;99.90;;;;;;5086740;28;20040;-70
2023/04/11 00:58:25;;;;;;;7.78;1.17;;;7.20;99.90;;;;;;5067587;28;20042;-70
2023/04/11 01:00:51;;;;;;;10.82;1.52;;;7.20;99.90;;;;;;5083832;28;20044;-70
2023/04/11 01:03:17;;;;;;;9.73;1.27;;;7.20;99.90;;;;;;5085122;28;20130;-70
2023/04/11 01:05:44;;;;;;;11.15;1.50;;;7.30;99.90;;;;;;5083020;28;20035;-70
2023/04/11 01:08:10;;;;;;;8.98;0.77;;;7.30;99.90;;;;;;5082271;28;20097;-70
2023/04/11 01:10:37;;;;;;;8.00;0.80;;;7.30;99.90;;;;;;5068104;28;20437;-71
2023/04/11 01:13:03;;;;;;;7.85;0.95;;;7.20;99.90;;;;;;5085254;28;20393;-71
2023/04/11 01:15:29;;;;;;;2.77;0.33;;;7.20;99.90;;;;;;5063513;28;20466;-71
2023/04/11 01:17:56;;;;;;;4.07;1.20;;;7.10;99.90;;;;;;5069385;28;20047;-71
2023/04/11 01:20:22;;;;;;;4.50;0.35;;;7.00;99.90;;;;;;5068301;28;20094;-71
2023/04/11 01:22:49;;;;;;;3.55;0.80;;;7.00;99.90;;;;;;5066064;28;20544;-71
2023/04/11 01:25:17;;;;;;;3.00;0.30;;;7.00;99.90;;;;;;5085235;28;20036;-71
2023/04/11 01:27:43;;;;;;;1.25;0.32;;;7.00;99.90;;;;;;5085547;28;20089;-71
2023/04/11 01:30:11;;;;;;;3.30;0.30;;;7.00;99.90;;;;;;5070169;28;20044;-71
2023/04/11 01:32:37;;;;;;;3.60;0.52;;;7.00;99.90;;;;;;5071373;28;20040;-71
2023/04/11 01:35:04;;;;;;;3.50;0.47;;;7.00;99.90;;;;;;5068154;28;20123;-71
2023/04/11 01:37:29;;;;;;;4.40;0.45;;;6.90;99.90;;;;;;5067774;28;20032;-71
2023/04/11 01:39:55;;;;;;;3.00;0.63;;;7.00;99.90;;;;;;5070132;28;20030;-71
2023/04/11 01:42:23;;;;;;;3.20;0.50;;;7.00;99.90;;;;;;5070768;28;20039;-71
2023/04/11 01:44:50;;;;;;;7.32;0.65;;;7.00;99.90;;;;;;5086135;28;20070;-71
2023/04/11 01:47:16;;;;;;;3.80;0.40;;;7.00;99.90;;;;;;5071867;28;20401;-71
2023/04/11 01:49:42;;;;;;;3.23;0.77;;;6.90;99.90;;;;;;5062997;28;20086;-71
2023/04/11 01:52:08;;;;;;;2.73;0.50;;;7.00;99.90;;;;;;5084434;28;20028;-71
2023/04/11 01:54:33;;;;;;;6.43;0.50;;;7.00;99.90;;;;;;5070198;28;20303;-71
2023/04/11 01:57:00;;;;;;;4.97;0.50;;;6.90;99.90;;;;;;5069693;28;20649;-72
2023/04/11 01:59:26;;;;;;;3.42;0.50;;;6.90;99.90;;;;;;5071365;28;20116;-71
2023/04/11 02:01:52;;;;;;;6.40;0.57;;;6.90;99.90;;;;;;5082013;28;20119;-71
2023/04/11 02:04:17;;;;;;;6.47;0.70;;;6.90;99.90;;;;;;5080570;28;20567;-71
2023/04/11 02:06:43;;;;;;;8.47;1.13;;;6.90;99.90;;;;;;5085869;28;20048;-71
2023/04/11 02:09:09;;;;;;;4.87;0.70;;;6.90;99.90;;;;;;5084966;28;20079;-71
2023/04/11 02:11:35;;;;;;;7.77;0.90;;;6.80;99.90;;;;;;5086483;28;20074;-71
2023/04/11 02:14:02;;;;;;;8.03;1.70;;;6.80;99.90;;;;;;5085122;28;20125;-71
2023/04/11 02:16:28;;;;;;;5.60;0.90;;;6.80;99.90;;;;;;5083357;28;20039;-71
2023/04/11 02:18:55;;;;;;;9.40;1.25;;;6.90;99.90;;;;;;5067387;28;20467;-71
2023/04/11 02:21:21;;;;;;;7.13;1.55;;;6.90;99.90;;;;;;5082671;28;20036;-71
2023/04/11 02:23:47;;;;;;;6.93;1.00;;;6.90;99.90;;;;;;5086656;28;20087;-71
2023/04/11 02:26:12;;;;;;;4.97;1.00;;;6.90;99.90;;;;;;5091667;28;20522;-71
2023/04/11 02:28:38;;;;;;;5.47;1.20;;;7.00;99.90;;;;;;5070457;28;20054;-71
2023/04/11 02:31:05;;;;;;;8.43;1.33;;;7.00;99.90;;;;;;5069149;28;20048;-71
2023/04/11 02:33:31;;;;;;;7.72;1.38;;;7.00;99.90;;;;;;5069151;28;20045;-71
2023/04/11 02:35:57;;;;;;;9.33;1.37;;;7.00;99.90;;;;;;5065692;28;20091;-71
2023/04/11 02:38:23;;;;;;;12.18;1.30;;;7.00;99.90;;;;;;5066459;28;20158;-71
2023/04/11 02:40:48;;;;;;;11.20;1.53;;;7.10;99.90;;;;;;5087045;28;20036;-71
2023/04/11 02:43:15;;;;;;;12.63;2.00;;;7.10;99.90;;;;;;5073873;28;20436;-71
2023/04/11 02:45:41;;;;;;;16.70;1.60;;;7.10;99.90;;;;;;5088919;28;20402;-71
2023/04/11 02:48:07;;;;;;;10.73;1.63;;;7.20;99.90;;;;;;5064344;28;20455;-71
2023/04/11 02:50:32;;;;;;;11.07;1.50;;;7.20;99.90;;;;;;5070424;28;20391;-71
2023/04/11 02:52:58;;;;;;;5.87;1.30;;;7.20;99.90;;;;;;5067502;28;20036;-71
2023/04/11 02:55:24;;;;;;;10.83;1.60;;;7.20;99.90;;;;;;5081975;28;20074;-71
2023/04/11 02:57:50;;;;;;;8.43;1.30;;;7.30;99.90;;;;;;5081567;28;20586;-71
2023/04/11 03:00:18;;;;;;;8.32;1.40;;;7.30;99.90;;;;;;5084987;28;20151;-71
2023/04/11 03:02:44;;;;;;;12.98;1.80;;;7.30;99.90;;;;;;5083991;28;20487;-71
2023/04/11 03:05:10;;;;;;;15.23;2.47;;;7.40;99.90;;;;;;5068313;28;20060;-71
2023/04/11 03:07:37;;;;;;;10.60;1.83;;;7.40;99.90;;;;;;5064770;28;20121;-71
2023/04/11 03:10:03;;;;;;;11.15;1.40;;;7.40;99.90;;;;;;5081589;28;20044;-71
2023/04/11 03:12:29;;;;;;;9.95;1.38;;;7.40;99.90;;;;;;5063824;28;20072;-71
2023/04/11 03:14:55;;;;;;;10.97;1.13;;;7.40;99.90;;;;;;5071347;28;20059;-71
2023/04/11 03:17:20;;;;;;;9.80;1.37;;;7.40;99.90;;;;;;5069969;28;20040;-72
2023/04/11 03:19:46;;;;;;;11.93;1.40;;;7.40;99.90;;;;;;5088382;28;20074;-71
2023/04/11 03:22:12;;;;;;;10.10;1.20;;;7.40;99.90;;;;;;5069396;28;20097;-71
2023/04/11 03:24:38;;;;;;;16.17;1.60;;;7.40;99.90;;;;;;5071707;28;20040;-71
2023/04/11 03:27:04;;;;;;;13.50;1.37;;;7.40;99.90;;;;;;5075124;28;20036;-71
2023/04/11 03:29:31;;;;;;;9.52;1.50;;;7.30;99.90;;;;;;5068920;28;20040;-71
2023/04/11 03:31:58;;;;;;;8.98;1.33;;;7.30;99.90;;;;;;5087379;28;20068;-71
2023/04/11 03:34:24;;;;;;;10.38;1.77;;;7.30;99.90;;;;;;5070434;28;20756;-71
2023/04/11 03:36:51;;;;;;;14.50;2.08;;;7.40;99.90;;;;;;5087061;28;20458;-71
2023/04/11 03:39:18;;;;;;;10.00;2.08;;;7.40;99.90;;;;;;5087135;28;20036;-71
2023/04/11 03:41:44;;;;;;;11.95;1.88;;;7.40;99.90;;;;;;5091060;28;20111;-71
2023/04/11 03:44:10;;;;;;;8.63;1.90;;;7.40;99.90;;;;;;5088660;28;20127;-71
2023/04/11 03:46:35;;;;;;;10.20;2.20;;;7.40;99.90;;;;;;5068536;28;20058;-71
2023/04/11 03:49:01;;;;;;;9.93;2.30;;;7.40;99.90;;;;;;5068082;28;20039;-71
2023/04/11 03:51:27;;;;;;;9.07;1.73;;;7.40;99.90;;;;;;5072236;28;20036;-71
2023/04/11 03:53:53;;;;;;;11.97;2.10;;;7.40;99.90;;;;;;5084312;28;20403;-71
2023/04/11 03:56:19;;;;;;;11.13;1.90;;;7.40;99.90;;;;;;5070026;28;20036;-71
2023/04/11 03:58:45;;;;;;;12.40;1.83;;;7.40;99.90;;;;;;5084306;28;20048;-71
2023/04/11 04:01:11;;;;;;;9.03;1.40;;;7.40;99.90;;;;;;5067909;28;20043;-71
2023/04/11 04:03:36;;;;;;;10.10;1.30;;;7.30;99.90;;;;;;5085973;28;20127;-71
2023/04/11 04:06:02;;;;;;;8.40;1.33;;;7.30;99.90;;;;;;5065518;28;20055;-71
2023/04/11 04:08:28;;;;;;;7.03;1.27;;;7.30;99.90;;;;;;5082378;28;20719;-70
2023/04/11 04:10:53;;;;;;;14.17;1.63;;;7.30;99.90;;;;;;5068912;28;20047;-71
2023/04/11 04:13:19;;;;;;;9.03;1.60;;;7.20;99.90;;;;;;5085400;28;20044;-71
2023/04/11 04:15:45;;;;;;;11.47;1.50;;;7.20;99.90;;;;;;5085927;28;20040;-71
2023/04/11 04:18:10;;;;;;;11.17;1.90;;;7.10;99.90;;;;;;5084118;28;20113;-71
2023/04/11 04:20:36;;;;;;;10.07;1.60;;;7.10;99.90;;;;;;5069731;28;20127;-71
2023/04/11 04:23:03;;;;;;;8.27;2.10;;;7.00;99.90;;;;;;5088586;28;20043;-70
2023/04/11 04:25:29;;;;;;;12.73;1.88;;;6.90;99.90;;;;;;5089159;28;20073;-70
2023/04/11 04:27:56;;;;;;;11.57;2.50;;;6.90;99.90;;;;;;5085361;28;20131;-71
2023/04/11 04:30:22;;;;;;;9.82;2.03;;;6.80;99.90;;;;;;5086274;28;20044;-71
2023/04/11 04:32:53;;;;;;;7.38;1.90;;;6.80;99.90;;;;;;5086222;28;20094;-71
2023/04/11 04:35:19;;;;;;;13.15;1.92;;;6.80;99.90;;;;;;5086440;28;20057;-71
2023/04/11 04:37:45;;;;;;;9.30;1.73;;;6.80;99.90;;;;;;5071491;28;20089;-71
2023/04/11 04:40:12;;;;;;;11.10;1.60;;;6.90;99.90;;;;;;5067301;28;20048;-71
2023/04/11 04:42:40;;;;;;;12.60;2.28;;;6.90;99.90;;;;;;5083157;28;20036;-71
2023/04/11 04:45:08;;;;;;;14.80;1.77;;;7.00;99.90;;;;;;5068502;28;20032;-70
2023/04/11 04:47:35;;;;;;;11.20;1.52;;;7.00;99.90;;;;;;5069477;28;20071;-71
2023/04/11 04:50:01;;;;;;;13.02;1.90;;;7.10;99.90;;;;;;5070578;28;20051;-71
2023/04/11 04:52:28;;;;;;;11.07;1.90;;;7.10;99.90;;;;;;5083980;28;20399;-71
2023/04/11 04:54:56;;;;;;;17.42;1.88;;;7.10;99.90;;;;;;5069256;28;20064;-71
2023/04/11 04:57:30;;;;;;;7.57;1.90;;;7.10;99.90;;;;;;5067057;28;20027;-72
2023/04/11 04:59:56;;;;;;;13.35;2.42;;;7.20;99.90;;;;;;5067383;28;20103;-71
2023/04/11 05:02:24;;;;;;;12.13;2.58;;;7.20;99.90;;;;;;5061964;28;20040;-71
2023/04/11 05:04:50;;;;;;;10.75;1.73;;;7.20;99.90;;;;;;5063184;28;20037;-71
2023/04/11 05:07:17;;;;;;;10.30;1.67;;;7.20;99.90;;;;;;5070502;28;20050;-71
2023/04/11 05:09:43;;;;;;;11.38;1.83;;;7.20;99.90;;;;;;5070664;28;20085;-71
2023/04/11 05:12:08;;;;;;;10.93;2.05;;;7.20;99.90;;;;;;5084582;28;20064;-71
2023/04/11 05:14:34;;;;;;;9.03;2.23;;;7.20;99.90;;;;;;5075996;28;20593;-70
2023/04/11 05:17:00;;;;;;;12.03;1.80;;;7.20;99.90;;;;;;5065543;28;20052;-70
2023/04/11 05:19:26;;;;;;;12.73;2.40;;;7.30;99.90;;;;;;5086662;28;20044;-71
2023/04/11 05:21:51;;;;;;;7.90;1.73;;;7.20;99.90;;;;;;5070074;28;20129;-71
2023/04/11 05:24:17;;;;;;;10.33;2.17;;;7.20;99.90;;;;;;5058987;28;20056;-70
2023/04/11 05:26:43;;;;;;;11.27;1.70;;;7.30;99.90;;;;;;5072151;28;20032;-70
2023/04/11 05:29:10;;;;;;;8.43;1.67;;;7.30;99.90;;;;;;5086793;28;20119;-71
2023/04/11 05:31:36;;;;;;;11.38;2.05;;;7.30;99.90;;;;;;5089282;28;20449;-70
2023/04/11 05:34:02;;;;;;;10.30;2.00;;;7.30;99.90;;;;;;5085135;28;20043;-70
2023/04/11 05:36:28;;;;;;;10.85;1.42;;;7.30;99.90;;;;;;5064964;28;20166;-71
2023/04/11 05:38:54;;;;;;;15.10;1.70;;;7.30;99.90;;;;;;5071362;28;20119;-71
2023/04/11 05:41:20;;;;;;;9.77;1.90;;;7.40;99.90;;;;;;5088795;28;20063;-71
2023/04/11 05:43:46;;;;;;;10.03;1.60;;;7.40;99.90;;;;;;5071177;28;20040;-71
2023/04/11 05:46:12;;;;;;;10.33;1.97;;;7.40;99.90;;;;;;5088807;28;20052;-71
2023/04/11 05:48:38;;;;;;;13.82;1.95;;;7.40;99.90;;;;;;5071040;28;20047;-71
2023/04/11 05:51:04;;;;;;;12.07;2.23;;;7.50;99.90;;;;;;5079434;28;20039;-71
2023/04/11 05:53:30;;;;;;;10.98;1.90;;;7.50;99.90;;;;;;5059466;28;20419;-71
2023/04/11 05:55:56;;;;;;;11.63;1.70;;;7.50;99.90;;;;;;5069722;28;20040;-70
2023/04/11 05:58:23;;;;;;;13.50;1.70;;;7.50;99.90;;;;;;5086183;28;20040;-70
2023/04/11 06:00:49;;;;;;;7.80;2.03;;;7.60;99.90;;;;;;5086808;28;20036;-70
2023/04/11 06:03:15;;;;;;;15.68;2.17;;;7.60;99.90;;;;;;5087323;28;20047;-71
2023/04/11 06:05:41;;;;;;;17.13;2.10;;;7.60;99.90;;;;;;5065876;28;20103;-70
2023/04/11 06:08:07;;;;;;;7.80;2.27;;;7.60;99.90;;;;;;5070894;28;20028;-70
2023/04/11 06:10:34;;;;;;;15.80;2.60;;;7.60;99.90;;;;;;5071318;28;20038;-70
2023/04/11 06:13:00;;;;;;;15.43;2.45;;;7.60;99.90;;;;;;5069281;28;20050;-70
2023/04/11 06:15:26;;;;;;;13.07;2.20;;;7.60;99.90;;;;;;5070782;28;20522;-70
2023/04/11 06:17:52;;;;;;;14.05;2.58;;;7.60;99.90;;;;;;5083486;28;20028;-71
2023/04/11 06:20:19;;;;;;;13.25;2.17;;;7.60;99.90;;;;;;5070744;28;20085;-70
2023/04/11 06:22:49;;;;;;;16.85;1.80;;;7.60;99.90;;;;;;5071109;28;20415;-70
2023/04/11 06:25:19;;;;;;;11.18;2.15;;;7.60;99.90;;;;;;5086740;28;20048;-71
2023/04/11 06:27:45;;;;;;;15.95;2.22;;;7.60;99.90;;;;;;5067273;28;20642;-70
2023/04/11 06:30:11;;;;;;;12.48;1.60;;;7.60;99.90;;;;;;5079121;28;20048;-70
2023/04/11 06:32:37;;;;;;;11.57;2.00;;;7.70;99.90;;;;;;5086048;28;20097;-70
2023/04/11 06:35:03;;;;;;;14.67;1.90;;;7.70;99.90;;;;;;5068849;28;20303;-71
2023/04/11 06:37:29;;;;;;;11.15;2.17;;;7.70;99.90;;;;;;5070760;28;20636;-71
2023/04/11 06:39:54;;;;;;;13.03;2.23;;;7.80;99.90;;;;;;5082778;28;20040;-70
2023/04/11 06:42:20;;;;;;;11.17;2.40;;;7.80;99.90;;;;;;5086607;28;20081;-70
2023/04/11 06:44:47;;;;;;;10.47;2.00;;;7.90;99.90;;;;;;5079502;28;20048;-70
2023/04/11 06:47:12;;;;;;;9.45;1.85;;;7.90;99.90;;;;;;5088974;28;20040;-70
2023/04/11 06:49:39;;;;;;;15.27;2.47;;;8.00;99.90;;;;;;5085581;28;20403;-70
2023/04/11 06:52:05;;;;;;;12.82;1.70;;;8.00;99.90;;;;;;5083773;28;20380;-70
2023/04/11 06:54:30;;;;;;;11.20;1.90;;;8.00;99.90;;;;;;5078017;28;20094;-71
2023/04/11 06:56:56;;;;;;;16.07;1.77;;;8.10;99.90;;;;;;5074177;28;20093;-71
2023/04/11 06:59:22;;;;;;;10.77;1.40;;;8.10;99.90;;;;;;5078894;28;20438;-72
2023/04/11 07:01:49;;;;;;;12.87;1.93;;;8.20;99.90;;;;;;5066249;28;20038;-71
2023/04/11 07:04:15;;;;;;;17.48;2.20;;;8.40;99.90;;;;;;5068654;28;20067;-71
2023/04/11 07:06:41;;;;;;;16.95;2.75;;;8.40;99.90;;;;;;5068394;28;20466;-71
2023/04/11 07:09:13;;;;;;;9.70;1.73;;;8.40;99.90;;;;;;5073156;28;20115;-72
2023/04/11 07:11:39;;;;;;;12.93;2.25;;;8.40;99.90;;;;;;5074525;28;20051;-72
2023/04/11 07:14:05;;;;;;;14.10;2.05;;;8.40;99.90;;;;;;5075614;28;20048;-72
2023/04/11 07:16:31;;;;;;;11.43;2.28;;;8.40;99.90;;;;;;5069047;28;20036;-72
2023/04/11 07:18:58;;;;;;;12.20;2.47;;;8.40;99.90;;;;;;5086426;28;20039;-72
2023/04/11 07:21:26;;;;;;;15.48;2.65;;;8.50;99.90;;;;;;5084594;28;20114;-71
2023/04/11 07:23:52;;;;;;;12.13;2.10;;;8.60;99.90;;;;;;5075189;28;20131;-71
2023/04/11 07:26:17;;;;;;;9.87;2.13;;;8.60;99.90;;;;;;5071489;28;20131;-71
2023/04/11 07:28:43;;;;;;;15.17;2.20;;;8.70;99.90;;;;;;5091804;28;20031;-71
2023/04/11 07:31:10;;;;;;;10.82;1.58;;;8.70;99.90;;;;;;5091139;28;20044;-71
2023/04/11 07:33:36;;;;;;;11.85;1.48;;;8.70;99.90;;;;;;5074508;28;20119;-71
2023/04/11 07:36:03;;;;;;;11.37;1.90;;;8.70;99.90;;;;;;5074449;28;20123;-71
2023/04/11 07:38:29;;;;;;;14.52;2.10;;;8.70;99.90;;;;;;5074430;28;20108;-71
2023/04/11 07:40:56;;;;;;;11.25;2.78;;;8.70;99.90;;;;;;5083172;28;20435;-71
2023/04/11 07:43:26;;;;;;;12.98;1.55;;;8.70;99.90;;;;;;5092800;28;20044;-71
2023/04/11 07:45:53;;;;;;;7.82;1.80;;;8.70;99.90;;;;;;5088309;28;20067;-71
2023/04/11 07:48:24;;;;;;;9.75;1.73;;;8.70;99.90;;;;;;5074209;28;20044;-71
2023/04/11 07:50:51;;;;;;;8.85;2.13;;;8.80;99.90;;;;;;5075955;28;20225;-71
2023/04/11 07:53:17;;;;;;;10.75;2.30;;;9.00;99.90;;;;;;5074517;28;20058;-71
2023/04/11 07:55:42;;;;;;;7.33;1.87;;;9.10;99.90;;;;;;5074773;28;20040;-71
2023/04/11 07:58:08;;;;;;;9.53;1.67;;;9.20;99.90;;;;;;5088412;28;20051;-71
2023/04/11 08:00:34;;;;;;;7.20;1.70;;;9.20;99.90;;;;;;5082849;28;20071;-71
2023/04/11 08:03:04;;;;;;;11.07;1.95;;;9.20;99.90;;;;;;5087192;28;20040;-70
2023/04/11 08:05:31;;;;;;;17.27;1.92;;;9.30;99.90;;;;;;5084923;28;20040;-72
2023/04/11 08:07:56;;;;;;;9.63;1.60;;;9.20;99.90;;;;;;5072669;28;20047;-71
2023/04/11 08:10:23;;;;;;;4.97;1.60;;;9.30;99.90;;;;;;5085681;28;20044;-71
2023/04/11 08:12:49;;;;;;;10.50;1.83;;;9.30;99.90;;;;;;5071858;28;20043;-71
2023/04/11 08:15:16;;;;;;;9.02;1.80;;;9.40;99.90;;;;;;5088565;28;20055;-71
2023/04/11 08:17:42;;;;;;;8.68;1.73;;;9.50;99.90;;;;;;5075193;28;20037;-72
2023/04/11 08:20:10;;;;;;;8.45;1.75;;;9.60;99.90;;;;;;5080041;28;20119;-71
2023/04/11 08:22:43;;;;;;;10.88;1.98;;;9.70;99.90;;;;;;5088248;28;20097;-72
2023/04/11 08:25:10;;;;;;;12.23;2.20;;;9.70;99.90;;;;;;5072040;28;20039;-71
2023/04/11 08:27:39;;;;;;;8.55;1.35;;;9.60;99.90;;;;;;5086537;28;20054;-71
2023/04/11 08:30:07;;;;;;;13.43;2.10;;;9.60;99.90;;;;;;5085299;28;20063;-71
2023/04/11 08:32:34;;;;;;;12.00;1.48;;;9.60;99.90;;;;;;5086358;28;20048;-71
2023/04/11 08:35:00;;;;;;;10.80;1.50;;;9.80;99.90;;;;;;5087677;28;20054;-71
2023/04/11 08:37:26;;;;;;;13.93;1.85;;;9.90;99.90;;;;;;5087968;28;20028;-71
2023/04/11 08:39:52;;;;;;;13.32;1.58;;;9.80;99.90;;;;;;5069926;28;20036;-71
2023/04/11 08:42:29;;;;;;;11.80;1.63;;;9.60;99.90;;;;;;5063775;28;20044;-71
2023/04/11 08:45:00;;;;;;;10.95;2.00;;;9.50;99.90;;;;;;5082929;28;20394;-71
2023/04/11 08:47:26;;;;;;;13.07;2.38;;;9.50;99.90;;;;;;5072337;28;20040;-71
2023/04/11 08:49:52;;;;;;;15.33;1.87;;;9.50;99.90;;;;;;5088559;28;20042;-71
2023/04/11 08:52:19;;;;;;;10.75;1.70;;;9.40;99.90;;;;;;5068800;28;20434;-71
2023/04/11 08:54:53;;;;;;;14.75;1.35;;;9.40;99.90;;;;;;5087661;28;20052;-71
2023/04/11 08:57:30;;;;;;;13.63;1.70;;;9.40;99.90;;;;;;5089547;28;20119;-69
2023/04/11 09:00:10;;;;;;;12.30;1.65;;;9.50;99.90;;;;;;5070555;28;20036;-69
2023/04/11 09:02:56;;;;;;;9.88;1.88;;;9.50;99.90;;;;;;5067801;28;20052;-69
2023/04/11 09:05:43;;;;;;;9.90;1.98;;;9.40;99.90;;;;;;5096772;28;20040;-69
2023/04/11 09:08:13;;;;;;;12.38;1.80;;;9.40;99.90;;;;;;5088718;28;20044;-71
2023/04/11 09:10:42;;;;;;;16.92;2.38;;;9.60;99.90;;;;;;5071848;28;20044;-71
2023/04/11 09:13:26;;;;;;;10.93;2.05;;;9.60;99.90;;;;;;5088174;28;20051;-71
2023/04/11 09:16:05;;;;;;;11.23;1.70;;;9.50;99.90;;;;;;5085519;28;20060;-71
2023/04/11 09:18:39;;;;;;;12.73;1.95;;;9.40;99.90;;;;;;5071920;28;20055;-71
2023/04/11 09:21:11;;;;;;;11.00;1.58;;;9.40;99.90;;;;;;5088605;28;20560;-71
2023/04/11 09:23:37;;;;;;;15.18;1.85;;;9.50;99.90;;;;;;5081536;28;20503;-71
2023/04/11 09:26:08;;;;;;;11.35;2.10;;;9.40;99.90;;;;;;5086259;28;20056;-71
2023/04/11 09:28:51;;;;;;;11.95;2.10;;;9.40;99.90;;;;;;5088576;28;20487;-71
2023/04/11 09:31:17;;;;;;;17.05;2.40;;;9.40;99.90;;;;;;5063063;28;20047;-71
2023/04/11 09:33:57;;;;;;;17.80;2.77;;;9.60;99.90;;;;;;5086516;28;20051;-71
2023/04/11 09:36:25;;;;;;;14.15;1.63;;;10.00;99.90;;;;;;5064702;28;20039;-71
2023/04/11 09:38:51;;;;;;;13.45;2.65;;;10.40;99.90;;;;;;5071350;28;20429;-71
2023/04/11 09:41:30;;;;;;;12.90;1.97;;;10.50;99.90;;;;;;5068316;28;20032;-71
2023/04/11 09:43:55;;;;;;;14.25;2.20;;;10.70;99.90;;;;;;5064067;28;20036;-71
2023/04/11 09:46:21;;;;;;;10.70;2.07;;;10.70;99.90;;;;;;5086871;28;20044;-71
2023/04/11 09:48:53;;;;;;;11.80;1.70;;;11.10;99.90;;;;;;5087662;28;20100;-71
2023/04/11 09:51:20;;;;;;;12.70;1.98;;;11.20;99.90;;;;;;5088218;28;20082;-71
2023/04/11 09:53:46;;;;;;;16.17;3.13;;;10.70;93.70;;;;;;5086814;28;20055;-71
2023/04/11 09:56:12;;;;;;;14.17;2.10;;;10.50;98.20;;;;;;5071747;28;20495;-71
2023/04/11 09:58:40;;;;;;;14.60;2.20;;;10.60;99.90;;;;;;5088649;28;20334;-71
2023/04/11 10:01:09;;;;;;;13.35;1.88;;;10.80;99.90;;;;;;5088578;28;20044;-71
2023/04/11 10:03:37;;;;;;;13.40;1.80;;;11.00;97.30;;;;;;5084783;28;20048;-71
2023/04/11 10:06:13;;;;;;;12.87;1.87;;;11.00;91.30;;;;;;5068556;28;20339;-72
2023/04/11 10:08:41;;;;;;;10.17;1.63;;;11.00;95.10;;;;;;5072177;28;20282;-71
2023/04/11 10:11:10;;;;;;;11.63;2.20;;;10.90;90.40;;;;;;5088580;28;20309;-72
2023/04/11 10:13:54;;;;;;;11.57;1.60;;;11.10;91.20;;;;;;5088612;28;20878;-71
2023/04/11 10:16:22;;;;;;;11.32;2.13;;;11.10;87.20;;;;;;5088024;28;20454;-71
2023/04/11 10:18:54;;;;;;;12.10;1.80;;;10.90;87.00;;;;;;5086836;28;20040;-70
2023/04/11 10:21:29;;;;;;;14.15;1.80;;;10.80;88.80;;;;;;5070509;28;20282;-71
2023/04/11 10:24:20;;;;;;;9.68;2.58;;;10.50;91.60;;;;;;5070336;28;20147;-71
2023/04/11 10:27:13;;;;;;;12.00;1.60;;;10.50;89.70;;;;;;5086518;28;20046;-71
2023/04/11 10:29:46;;;;;;;11.73;1.88;;;10.20;92.70;;;;;;5076263;28;20048;-71
2023/04/11 10:32:20;;;;;;;15.27;2.33;;;9.90;92.90;;;;;;5070788;28;20051;-70
2023/04/11 10:34:48;;;;;;;12.60;1.65;;;10.00;96.60;;;;;;5088138;28;20047;-71
2023/04/11 10:37:15;;;;;;;12.38;2.47;;;10.00;99.10;;;;;;5070003;28;20040;-71
2023/04/11 10:39:50;;;;;;;17.02;2.33;;;9.90;98.70;;;;;;5068596;28;20475;-70
2023/04/11 10:42:28;;;;;;;13.65;1.90;;;9.70;99.90;;;;;;5079100;28;20046;-70
2023/04/11 10:45:20;;;;;;;14.18;1.75;;;9.50;99.90;;;;;;5099185;28;20055;-70
2023/04/11 10:47:55;;;;;;;15.65;2.85;;;9.50;99.90;;;;;;5088092;28;20498;-70
2023/04/11 10:50:30;;;;;;;15.98;2.08;;;9.70;99.90;;;;;;5070618;28;20052;-70
2023/04/11 10:53:04;;;;;;;11.00;1.90;;;10.00;99.90;;;;;;5077145;28;20089;-71
2023/04/11 10:55:42;;;;;;;12.60;1.90;;;10.20;99.90;;;;;;5088386;28;20040;-71
2023/04/11 10:58:21;;;;;;;10.10;2.00;;;10.30;99.90;;;;;;5066002;28;20033;-70
2023/04/11 11:00:47;;;;;;;9.32;1.80;;;10.60;95.10;;;;;;5069234;28;20459;-70
2023/04/11 11:03:21;;;;;;;11.63;1.60;;;10.70;95.00;;;;;;5086562;28;20582;-70
2023/04/11 11:06:04;;;;;;;12.43;2.07;;;10.90;95.70;;;;;;5085840;28;20301;-71
2023/04/11 11:08:36;;;;;;;12.50;1.83;;;11.10;88.90;;;;;;5089578;28;20281;-71
2023/04/11 11:11:07;;;;;;;12.83;2.03;;;11.30;87.90;;;;;;5085702;28;20075;-71
2023/04/11 11:13:41;;;;;;;18.50;1.70;;;11.40;83.50;;;;;;5086904;28;20297;-71
2023/04/11 11:16:09;;;;;;;10.70;1.70;;;11.40;80.70;;;;;;5081267;28;20921;-71
2023/04/11 11:18:37;;;;;;;11.97;1.60;;;11.30;81.00;;;;;;5088724;28;20664;-70
2023/04/11 11:21:03;;;;;;;13.37;1.70;;;11.20;80.40;;;;;;5086669;28;20309;-71
2023/04/11 11:23:29;;;;;;;7.83;1.53;;;11.10;80.10;;;;;;5088994;28;20274;-70
2023/04/11 11:25:57;;;;;;;12.47;2.20;;;11.10;80.90;;;;;;5087187;28;20781;-70
2023/04/11 11:28:23;;;;;;;16.10;2.43;;;11.00;80.00;;;;;;5088708;28;20748;-71
2023/04/11 11:30:54;;;;;;;12.13;2.03;;;10.80;80.10;;;;;;5084547;28;20325;-70
2023/04/11 11:33:22;;;;;;;14.13;2.03;;;10.70;80.40;;;;;;5083606;28;20825;-70
2023/04/11 11:35:54;;;;;;;11.63;1.77;;;10.90;82.80;;;;;;5074247;28;20366;-70
2023/04/11 11:38:23;;;;;;;12.40;2.07;;;11.00;79.50;;;;;;5090173;28;20385;-71
2023/04/11 11:40:50;;;;;;;9.10;1.70;;;11.10;80.10;;;;;;5087792;28;20305;-71
2023/04/11 11:43:16;;;;;;;10.23;1.97;;;11.10;81.30;;;;;;5070002;28;20274;-70
2023/04/11 11:45:42;;;;;;;12.57;1.67;;;10.90;79.40;;;;;;5091535;28;20339;-71
2023/04/11 11:48:19;;;;;;;7.60;1.77;;;11.00;81.50;;;;;;5104843;28;20411;-71
2023/04/11 11:50:45;;;;;;;13.90;2.33;;;11.20;80.40;;;;;;5093239;28;21007;-71
2023/04/11 11:53:15;;;;;;;11.60;1.63;;;11.40;76.30;;;;;;5082893;28;20352;-70
2023/04/11 11:55:42;;;;;;;8.43;1.77;;;11.50;76.70;;;;;;5072701;28;20542;-70
2023/04/11 11:58:08;;;;;;;9.47;1.90;;;11.60;76.20;;;;;;5091813;28;20278;-71
2023/04/11 12:00:39;;;;;;;12.13;1.80;;;11.60;74.90;;;;;;5084006;28;20371;-71
2023/04/11 12:03:08;;;;;;;10.13;1.30;;;11.40;71.30;;;;;;5073800;28;20338;-71
2023/04/11 12:05:35;;;;;;;10.93;1.63;;;11.20;74.00;;;;;;5063130;28;20364;-71
2023/04/11 12:08:03;;;;;;;15.53;2.00;;;11.00;74.20;;;;;;5092195;28;20279;-71
2023/04/11 12:10:40;;;;;;;11.87;1.73;;;10.90;76.80;;;;;;5075045;28;20286;-70
2023/04/11 12:13:15;;;;;;;12.43;1.87;;;10.90;75.60;;;;;;5091550;28;21130;-71
2023/04/11 12:15:51;;;;;;;16.25;1.98;;;10.90;75.40;;;;;;5089596;28;20350;-70
2023/04/11 12:18:24;;;;;;;11.10;1.80;;;10.80;75.90;;;;;;5092389;28;20051;-70
2023/04/11 12:20:51;;;;;;;11.47;1.57;;;11.10;78.10;;;;;;5091502;28;20317;-70
2023/04/11 12:23:17;;;;;;;9.50;1.47;;;11.40;77.70;;;;;;5083463;28;20847;-70
2023/04/11 12:25:43;;;;;;;10.10;1.87;;;11.50;74.10;;;;;;5088682;28;20290;-71
2023/04/11 12:28:10;;;;;;;7.73;1.20;;;11.50;72.00;;;;;;5091872;28;20282;-70
2023/04/11 12:30:36;;;;;;;8.93;1.70;;;11.50;71.10;;;;;;5088339;28;20041;-70
2023/04/11 12:33:02;;;;;;;12.77;2.87;;;11.50;68.50;;;;;;5077442;28;20307;-70
2023/04/11 12:35:29;;;;;;;11.20;2.57;;;11.50;70.30;;;;;;5085177;28;20281;-71
2023/04/11 12:37:55;;;;;;;13.73;3.43;;;11.60;72.60;;;;;;5091196;28;20278;-71
2023/04/11 12:40:21;;;;;;;12.97;2.83;;;11.60;71.00;;;;;;5091507;28;20282;-71
2023/04/11 12:42:47;;;;;;;10.93;3.90;;;11.40;70.00;;;;;;5067772;28;20301;-71
2023/04/11 12:45:15;;;;;;;18.07;7.10;;;11.10;68.80;;;;;;5087074;28;20751;-71
2023/04/11 12:47:41;;;;;;;19.30;7.43;;;11.00;71.80;;;;;;5074431;28;20687;-71
2023/04/11 12:50:09;;;;;;;13.63;6.47;;;11.30;72.70;;;;;;5090935;28;20310;-71
2023/04/11 12:52:35;;;;;;;16.13;2.97;;;11.70;71.90;;;;;;5087358;28;21041;-70